createdAt,value
2023-04-16T00:02:11.532Z,35.57
2023-04-16T00:04:41.392Z,35.08
2023-04-16T00:07:11.186Z,35.11
2023-04-16T00:09:40.836Z,35.07
2023-04-16T00:12:10.495Z,35.03
2023-04-16T00:14:40.083Z,35.05
2023-04-16T00:17:09.766Z,34.90
2023-04-16T00:19:39.515Z,35.02
2023-04-16T00:22:09.198Z,35.00
2023-04-16T00:24:38.807Z,34.88
2023-04-16T00:27:08.964Z,35.12
2023-04-16T00:29:38.585Z,34.96
2023-04-16T00:32:11.766Z,35.04
2023-04-16T00:34:41.374Z,34.95
2023-04-16T00:37:11.067Z,34.68
2023-04-16T00:39:40.719Z,34.69
2023-04-16T00:42:10.323Z,34.84
2023-04-16T00:44:39.999Z,34.79
2023-04-16T00:47:09.686Z,34.81
2023-04-16T00:49:39.320Z,34.57
2023-04-16T00:52:09.060Z,34.77
2023-04-16T00:54:38.668Z,34.62
2023-04-16T00:57:09.177Z,34.82
2023-04-16T00:59:38.827Z,34.99
2023-04-16T01:02:08.916Z,34.71
2023-04-16T01:04:38.683Z,34.72
2023-04-16T01:07:08.398Z,34.65
2023-04-16T01:09:38.056Z,34.73
2023-04-16T01:12:07.774Z,34.79
2023-04-16T01:14:37.959Z,34.59
2023-04-16T01:17:07.686Z,34.35
2023-04-16T01:19:40.160Z,34.58
2023-04-16T01:22:09.780Z,34.56
2023-04-16T01:24:39.891Z,34.65
2023-04-16T01:27:09.582Z,34.66
2023-04-16T01:29:39.277Z,34.58
2023-04-16T01:32:09.095Z,34.58
2023-04-16T01:34:39.081Z,34.32
2023-04-16T01:37:08.757Z,34.56
2023-04-16T01:39:38.389Z,34.53
2023-04-16T01:42:08.065Z,34.49
2023-04-16T01:44:37.721Z,34.60
2023-04-16T01:47:07.418Z,34.39
2023-04-16T01:49:38.009Z,34.55
2023-04-16T01:52:09.973Z,34.55
2023-04-16T01:54:39.624Z,34.30
2023-04-16T01:57:09.249Z,34.12
2023-04-16T01:59:39.295Z,34.39
2023-04-16T02:02:16.110Z,34.35
2023-04-16T02:04:47.156Z,34.42
2023-04-16T02:07:17.177Z,34.48
2023-04-16T02:09:47.046Z,34.42
2023-04-16T02:12:16.988Z,34.30
2023-04-16T02:14:46.643Z,34.82
2023-04-16T02:17:17.190Z,34.57
2023-04-16T02:19:46.840Z,34.51
2023-04-16T02:22:16.726Z,34.50
2023-04-16T02:24:46.390Z,34.25
2023-04-16T02:27:16.054Z,34.41
2023-04-16T02:29:45.767Z,34.29
2023-04-16T02:32:15.481Z,34.28
2023-04-16T02:34:45.102Z,34.13
2023-04-16T02:37:16.837Z,34.38
2023-04-16T02:39:46.653Z,34.35
2023-04-16T02:42:17.217Z,34.40
2023-04-16T02:44:46.945Z,34.09
2023-04-16T02:47:16.569Z,34.28
2023-04-16T02:49:46.339Z,34.40
2023-04-16T02:52:15.939Z,34.47
2023-04-16T02:54:45.572Z,34.27
2023-04-16T02:57:15.225Z,34.50
2023-04-16T02:59:44.839Z,34.45
2023-04-16T03:02:15.477Z,34.15
2023-04-16T03:04:48.340Z,34.17
2023-04-16T03:07:19.826Z,34.34
2023-04-16T03:09:49.461Z,34.29
2023-04-16T03:12:19.138Z,34.03
2023-04-16T03:14:48.773Z,34.15
2023-04-16T03:17:18.505Z,34.25
2023-04-16T03:19:48.249Z,33.97
2023-04-16T03:22:17.855Z,34.39
2023-04-16T03:24:47.527Z,33.95
2023-04-16T03:27:17.201Z,34.38
2023-04-16T03:29:46.843Z,34.24
2023-04-16T03:32:16.613Z,34.13
2023-04-16T03:34:46.331Z,34.13
2023-04-16T03:37:15.986Z,34.18
2023-04-16T03:39:45.602Z,34.32
2023-04-16T03:42:16.446Z,34.35
2023-04-16T03:44:46.986Z,34.25
2023-04-16T03:47:16.639Z,34.20
2023-04-16T03:49:46.297Z,34.42
2023-04-16T03:52:15.943Z,34.36
2023-04-16T03:54:45.635Z,34.48
2023-04-16T03:57:15.241Z,34.33
2023-04-16T03:59:44.907Z,34.37
2023-04-16T04:02:14.643Z,34.41
2023-04-16T04:04:44.427Z,34.57
2023-04-16T04:07:14.077Z,34.33
2023-04-16T04:09:43.783Z,34.29
2023-04-16T04:12:13.415Z,34.44
2023-04-16T04:14:43.204Z,34.36
2023-04-16T04:17:12.883Z,34.33
2023-04-16T04:19:50.660Z,34.46
2023-04-16T04:22:24.230Z,34.40
2023-04-16T04:24:53.827Z,34.61
2023-04-16T04:27:23.478Z,34.45
2023-04-16T04:29:53.129Z,34.36
2023-04-16T04:32:22.790Z,34.66
2023-04-16T04:34:52.664Z,34.57
2023-04-16T04:37:22.634Z,34.62
2023-04-16T04:39:52.318Z,34.83
2023-04-16T04:42:22.754Z,34.69
2023-04-16T04:44:52.407Z,34.42
2023-04-16T04:47:22.078Z,34.44
2023-04-16T04:49:51.730Z,34.49
2023-04-16T04:52:22.074Z,34.61
2023-04-16T04:54:51.730Z,34.62
2023-04-16T04:57:21.448Z,34.36
2023-04-16T04:59:52.617Z,34.51
2023-04-16T05:02:22.526Z,34.43
2023-04-16T05:04:52.405Z,34.45
2023-04-16T05:07:23.109Z,34.19
2023-04-16T05:09:53.490Z,34.21
2023-04-16T05:12:23.129Z,34.61
2023-04-16T05:14:55.801Z,34.26
2023-04-16T05:17:25.491Z,34.41
2023-04-16T05:19:55.169Z,34.32
2023-04-16T05:22:24.893Z,34.48
2023-04-16T05:24:54.535Z,34.34
2023-04-16T05:27:24.145Z,34.49
2023-04-16T05:29:53.812Z,34.28
2023-04-16T05:32:26.189Z,34.26
2023-04-16T05:34:55.948Z,34.35
2023-04-16T05:37:25.624Z,34.31
2023-04-16T05:39:55.233Z,34.45
2023-04-16T05:42:24.898Z,34.14
2023-04-16T05:44:54.632Z,34.36
2023-04-16T05:47:24.283Z,34.40
2023-04-16T05:49:54.019Z,34.20
2023-04-16T05:52:23.635Z,34.12
2023-04-16T05:54:54.171Z,34.13
2023-04-16T05:57:24.054Z,34.13
2023-04-16T05:59:53.727Z,33.93
2023-04-16T06:02:23.505Z,33.79
2023-04-16T06:04:53.257Z,33.90
2023-04-16T06:07:23.110Z,33.81
2023-04-16T06:09:52.783Z,33.71
2023-04-16T06:12:22.817Z,33.64
2023-04-16T06:14:52.443Z,33.65
2023-04-16T06:17:22.956Z,33.53
2023-04-16T06:19:52.593Z,33.57
2023-04-16T06:22:22.300Z,33.42
2023-04-16T06:24:52.241Z,33.51
2023-04-16T06:27:21.890Z,33.43
2023-04-16T06:29:52.236Z,33.47
2023-04-16T06:32:22.157Z,33.48
2023-04-16T06:34:51.832Z,33.37
2023-04-16T06:37:21.447Z,33.45
2023-04-16T06:39:51.113Z,33.23
2023-04-16T06:42:20.773Z,33.27
2023-04-16T06:44:50.423Z,33.24
2023-04-16T06:47:20.088Z,33.33
2023-04-16T06:49:49.749Z,33.30
2023-04-16T06:52:19.356Z,33.24
2023-04-16T06:54:49.724Z,33.29
2023-04-16T06:57:19.378Z,33.10
2023-04-16T06:59:48.989Z,33.08
2023-04-16T07:02:18.885Z,33.03
2023-04-16T07:04:48.630Z,33.19
2023-04-16T07:07:18.279Z,33.14
2023-04-16T07:09:47.958Z,33.08
2023-04-16T07:12:17.707Z,33.02
2023-04-16T07:14:47.403Z,32.88
2023-04-16T07:17:17.029Z,33.02
2023-04-16T07:19:47.241Z,32.82
2023-04-16T07:22:17.309Z,32.85
2023-04-16T07:24:46.928Z,32.84
2023-04-16T07:27:16.596Z,33.03
2023-04-16T07:29:47.449Z,32.72
2023-04-16T07:32:17.086Z,32.59
2023-04-16T07:34:46.961Z,32.48
2023-04-16T07:37:16.576Z,32.24
2023-04-16T07:39:46.189Z,32.37
2023-04-16T07:42:16.036Z,32.32
2023-04-16T07:44:46.417Z,32.33
2023-04-16T07:47:16.054Z,32.48
2023-04-16T07:49:45.661Z,32.29
2023-04-16T07:52:15.520Z,32.40
2023-04-16T07:54:45.169Z,32.37
2023-04-16T07:57:14.827Z,32.59
2023-04-16T07:59:45.367Z,32.34
2023-04-16T08:02:16.652Z,32.36
2023-04-16T08:04:46.624Z,32.50
2023-04-16T08:07:16.384Z,32.23
2023-04-16T08:09:55.102Z,32.12
2023-04-16T08:12:24.873Z,32.29
2023-04-16T08:14:54.582Z,32.40
2023-04-16T08:17:24.248Z,32.50
2023-04-16T08:19:53.894Z,32.31
2023-04-16T08:22:25.141Z,32.32
2023-04-16T08:24:54.999Z,32.44
2023-04-16T08:27:24.621Z,32.48
2023-04-16T08:29:54.252Z,32.47
2023-04-16T08:32:23.971Z,32.28
2023-04-16T08:34:53.687Z,32.45
2023-04-16T08:37:23.319Z,32.34
2023-04-16T08:39:52.930Z,32.48
2023-04-16T08:42:38.548Z,32.38
2023-04-16T08:45:18.912Z,32.13
2023-04-16T08:47:50.052Z,32.41
2023-04-16T08:50:28.148Z,32.33
2023-04-16T08:53:08.499Z,32.40
2023-04-16T08:55:50.557Z,32.21
2023-04-16T08:58:24.721Z,31.92
2023-04-16T09:00:54.387Z,32.15
2023-04-16T09:03:24.166Z,32.34
2023-04-16T09:05:53.841Z,32.51
2023-04-16T09:08:23.623Z,32.27
2023-04-16T09:10:53.439Z,32.47
2023-04-16T09:13:23.895Z,32.11
2023-04-16T09:15:58.526Z,32.33
2023-04-16T09:18:29.642Z,32.49
2023-04-16T09:20:59.287Z,32.58
2023-04-16T09:23:28.915Z,32.35
2023-04-16T09:26:00.905Z,32.31
2023-04-16T09:28:50.237Z,32.15
2023-04-16T09:31:21.137Z,32.34
2023-04-16T09:34:07.004Z,32.17
2023-04-16T09:36:37.013Z,32.54
2023-04-16T09:39:06.799Z,32.39
2023-04-16T09:41:41.110Z,32.38
2023-04-16T09:44:10.904Z,32.37
2023-04-16T09:46:43.629Z,32.38
2023-04-16T09:49:19.909Z,32.43
2023-04-16T09:51:54.347Z,32.61
2023-04-16T09:54:23.976Z,32.49
2023-04-16T09:56:53.646Z,32.59
2023-04-16T09:59:23.924Z,32.83
2023-04-16T10:01:57.275Z,32.61
2023-04-16T10:04:55.389Z,32.83
2023-04-16T10:07:25.405Z,32.79
2023-04-16T10:09:55.035Z,32.75
2023-04-16T10:12:24.667Z,32.76
2023-04-16T10:14:54.247Z,33.00
2023-04-16T10:17:25.254Z,32.79
2023-04-16T10:19:54.955Z,32.81
2023-04-16T10:22:24.601Z,32.96
2023-04-16T10:24:54.809Z,32.99
2023-04-16T10:27:24.535Z,33.04
2023-04-16T10:29:54.180Z,32.65
2023-04-16T10:32:23.850Z,32.88
2023-04-16T10:34:53.495Z,33.02
2023-04-16T10:37:30.946Z,32.93
2023-04-16T10:40:06.419Z,32.96
2023-04-16T10:42:36.159Z,32.81
2023-04-16T10:45:05.895Z,32.99
2023-04-16T10:47:35.587Z,32.92
2023-04-16T10:50:06.522Z,32.94
2023-04-16T10:52:36.169Z,32.80
2023-04-16T10:55:05.877Z,33.00
2023-04-16T10:57:35.519Z,32.77
2023-04-16T11:00:05.679Z,33.13
2023-04-16T11:02:35.656Z,33.17
2023-04-16T11:05:05.660Z,33.14
2023-04-16T11:07:36.419Z,33.20
2023-04-16T11:10:06.884Z,33.23
2023-04-16T11:12:49.894Z,33.18
2023-04-16T11:15:23.498Z,33.29
2023-04-16T11:17:54.102Z,33.24
2023-04-16T11:20:28.364Z,33.28
2023-04-16T11:22:59.057Z,33.17
2023-04-16T11:25:33.512Z,33.37
2023-04-16T11:28:05.107Z,33.34
2023-04-16T11:30:36.076Z,33.33
2023-04-16T11:33:12.842Z,33.45
2023-04-16T11:35:42.827Z,33.26
2023-04-16T11:38:12.492Z,33.32
2023-04-16T11:40:42.232Z,33.44
2023-04-16T11:43:18.651Z,33.38
2023-04-16T11:46:24.097Z,33.35
2023-04-16T11:48:59.862Z,33.17
2023-04-16T11:51:29.487Z,33.40
2023-04-16T11:54:00.246Z,33.26
2023-04-16T11:56:34.940Z,33.17
2023-04-16T11:59:15.310Z,33.04
2023-04-16T12:01:49.815Z,33.18
2023-04-16T12:04:23.368Z,33.16
2023-04-16T12:07:17.213Z,33.06
2023-04-16T12:09:46.987Z,33.27
2023-04-16T12:12:32.870Z,33.14
2023-04-16T12:15:05.827Z,33.32
2023-04-16T12:17:36.616Z,33.41
2023-04-16T12:20:13.530Z,33.27
2023-04-16T12:22:54.302Z,33.28
2023-04-16T12:25:23.903Z,33.32
2023-04-16T12:27:54.869Z,33.39
2023-04-16T12:30:25.343Z,33.23
2023-04-16T12:32:58.681Z,33.28
2023-04-16T12:35:33.213Z,33.42
2023-04-16T12:38:03.194Z,33.44
2023-04-16T12:40:33.027Z,33.23
2023-04-16T12:43:02.722Z,33.24
2023-04-16T12:45:32.438Z,33.38
2023-04-16T12:48:02.242Z,33.18
2023-04-16T12:50:31.977Z,33.23
2023-04-16T12:53:01.728Z,33.28
2023-04-16T12:55:31.364Z,33.17
2023-04-16T12:58:01.077Z,33.16
2023-04-16T13:00:30.814Z,33.07
2023-04-16T13:03:00.617Z,33.30
2023-04-16T13:05:30.315Z,33.38
2023-04-16T13:07:59.939Z,33.24
2023-04-16T13:10:29.675Z,33.27
2023-04-16T13:12:59.254Z,33.31
2023-04-16T13:15:28.952Z,33.29
2023-04-16T13:17:58.683Z,33.31
2023-04-16T13:20:28.470Z,33.42
2023-04-16T13:22:58.287Z,33.30
2023-04-16T13:25:27.984Z,33.39
2023-04-16T13:27:57.678Z,33.35
2023-04-16T13:30:27.799Z,33.23
2023-04-16T13:33:00.452Z,33.29
2023-04-16T13:35:30.901Z,33.26
2023-04-16T13:38:00.574Z,33.20
2023-04-16T13:40:30.278Z,33.22
2023-04-16T13:42:59.928Z,33.30
2023-04-16T13:45:29.642Z,33.24
2023-04-16T13:47:59.398Z,33.25
2023-04-16T13:50:29.127Z,33.47
2023-04-16T13:52:58.818Z,33.31
2023-04-16T13:55:28.486Z,33.45
2023-04-16T13:57:58.128Z,33.43
2023-04-16T14:00:29.034Z,33.34
2023-04-16T14:02:58.895Z,33.31
2023-04-16T14:05:28.980Z,33.25
2023-04-16T14:07:58.602Z,33.33
2023-04-16T14:10:28.275Z,33.48
2023-04-16T14:12:57.874Z,33.20
2023-04-16T14:15:29.046Z,33.48
2023-04-16T14:17:58.766Z,33.33
2023-04-16T14:20:28.463Z,33.58
2023-04-16T14:22:58.674Z,33.30
2023-04-16T14:25:28.673Z,33.39
2023-04-16T14:27:58.398Z,33.37
2023-04-16T14:30:28.096Z,33.30
2023-04-16T14:32:57.809Z,33.46
2023-04-16T14:35:28.087Z,33.69
2023-04-16T14:37:58.277Z,33.30
2023-04-16T14:40:28.033Z,33.69
2023-04-16T14:42:57.753Z,33.47
2023-04-16T14:45:30.499Z,33.54
2023-04-16T14:48:00.255Z,33.41
2023-04-16T14:50:29.875Z,33.54
2023-04-16T14:52:59.547Z,33.52
2023-04-16T14:55:29.208Z,33.55
2023-04-16T14:57:58.902Z,33.51
2023-04-16T15:00:28.919Z,33.47
2023-04-16T15:02:59.130Z,33.69
2023-04-16T15:05:28.929Z,33.69
2023-04-16T15:07:58.559Z,33.44
2023-04-16T15:10:28.235Z,33.66
2023-04-16T15:12:57.922Z,33.57
2023-04-16T15:15:27.654Z,33.68
2023-04-16T15:17:58.472Z,33.72
2023-04-16T15:20:28.580Z,33.62
2023-04-16T15:22:58.428Z,33.53
2023-04-16T15:25:28.174Z,33.44
2023-04-16T15:27:57.927Z,33.64
2023-04-16T15:30:27.675Z,33.45
2023-04-16T15:32:57.647Z,33.37
2023-04-16T15:35:27.354Z,33.50
2023-04-16T15:37:57.072Z,33.46
2023-04-16T15:40:27.436Z,33.65
2023-04-16T15:42:58.055Z,33.52
2023-04-16T15:45:27.962Z,33.67
2023-04-16T15:48:00.739Z,33.47
2023-04-16T15:50:30.503Z,33.41
2023-04-16T15:53:00.118Z,33.64
2023-04-16T15:55:29.836Z,33.75
2023-04-16T15:57:59.477Z,33.40
2023-04-16T16:00:29.558Z,33.46
2023-04-16T16:02:59.696Z,33.70
2023-04-16T16:05:29.498Z,33.69
2023-04-16T16:08:00.090Z,33.59
2023-04-16T16:10:29.766Z,33.57
2023-04-16T16:12:59.456Z,33.37
2023-04-16T16:15:29.119Z,33.67
2023-04-16T16:17:59.499Z,33.58
2023-04-16T16:20:29.517Z,33.44
2023-04-16T16:22:59.542Z,33.49
2023-04-16T16:25:29.268Z,33.49
2023-04-16T16:28:00.302Z,33.54
2023-04-16T16:30:29.976Z,33.59
2023-04-16T16:32:59.721Z,33.38
2023-04-16T16:35:29.371Z,33.65
2023-04-16T16:38:00.150Z,33.41
2023-04-16T16:40:30.188Z,33.60
2023-04-16T16:42:59.940Z,33.58
2023-04-16T16:45:30.236Z,33.40
2023-04-16T16:48:05.121Z,33.57
2023-04-16T16:50:35.059Z,33.60
2023-04-16T16:53:04.969Z,33.34
2023-04-16T16:55:34.570Z,33.42
2023-04-16T16:58:04.991Z,33.39
2023-04-16T17:00:34.741Z,33.51
2023-04-16T17:03:04.663Z,33.46
2023-04-16T17:05:34.434Z,33.55
2023-04-16T17:08:04.256Z,33.58
2023-04-16T17:10:33.926Z,33.50
2023-04-16T17:13:03.857Z,33.78
2023-04-16T17:15:33.464Z,33.60
2023-04-16T17:18:03.181Z,33.55
2023-04-16T17:20:34.044Z,33.53
2023-04-16T17:23:03.709Z,33.67
2023-04-16T17:25:33.306Z,33.59
2023-04-16T17:28:03.059Z,33.41
2023-04-16T17:30:33.520Z,33.52
2023-04-16T17:33:05.840Z,33.64
2023-04-16T17:35:35.633Z,33.50
2023-04-16T17:38:05.416Z,33.54
2023-04-16T17:40:35.080Z,33.54
2023-04-16T17:43:04.813Z,33.60
2023-04-16T17:45:35.769Z,33.68
2023-04-16T17:48:05.542Z,33.79
2023-04-16T17:50:36.065Z,33.60
2023-04-16T17:53:07.248Z,33.54
2023-04-16T17:55:37.292Z,33.42
2023-04-16T17:58:07.026Z,33.58
2023-04-16T18:00:36.650Z,33.67
2023-04-16T18:03:06.646Z,33.39
2023-04-16T18:05:36.656Z,33.37
2023-04-16T18:08:06.486Z,33.39
2023-04-16T18:10:36.396Z,33.19
2023-04-16T18:13:06.008Z,33.40
2023-04-16T18:15:39.754Z,33.35
2023-04-16T18:18:09.782Z,33.24
2023-04-16T18:20:39.626Z,33.28
2023-04-16T18:23:09.231Z,33.32
2023-04-16T18:28:09.533Z,33.09
2023-04-16T18:30:40.402Z,33.25
2023-04-16T18:35:42.940Z,33.45
2023-04-16T18:38:12.599Z,33.38
2023-04-16T18:40:43.157Z,33.61
2023-04-16T18:43:12.802Z,33.54
2023-04-16T18:45:43.170Z,33.32
2023-04-16T18:48:12.942Z,33.46
2023-04-16T18:50:42.600Z,33.23
2023-04-16T18:53:12.429Z,33.33
2023-04-16T18:55:42.363Z,33.62
2023-04-16T18:58:12.455Z,33.46
2023-04-16T19:00:42.406Z,33.54
2023-04-16T19:03:12.108Z,33.30
2023-04-16T19:05:41.754Z,33.42
2023-04-16T19:08:11.416Z,33.49
2023-04-16T19:10:41.107Z,33.61
2023-04-16T19:13:10.740Z,33.30
2023-04-16T19:15:40.419Z,33.60
2023-04-16T19:18:10.053Z,33.53
2023-04-16T19:20:39.885Z,33.19
2023-04-16T19:23:10.781Z,33.36
2023-04-16T19:25:40.948Z,33.24
2023-04-16T19:28:10.607Z,33.36
2023-04-16T19:30:41.821Z,33.52
2023-04-16T19:33:11.509Z,33.48
2023-04-16T19:35:41.180Z,33.39
2023-04-16T19:38:11.302Z,33.54
2023-04-16T19:40:41.548Z,33.46
2023-04-16T19:43:11.204Z,33.45
2023-04-16T19:45:47.799Z,33.40
2023-04-16T19:48:17.641Z,33.65
2023-04-16T19:50:47.333Z,33.45
2023-04-16T19:53:18.735Z,33.76
2023-04-16T19:55:48.414Z,33.42
2023-04-16T19:58:18.285Z,33.68
2023-04-16T20:00:48.875Z,33.62
2023-04-16T20:03:18.639Z,33.48
2023-04-16T20:05:51.380Z,33.44
2023-04-16T20:08:21.012Z,33.71
2023-04-16T20:10:50.730Z,33.64
2023-04-16T20:13:20.357Z,33.36
2023-04-16T20:15:53.416Z,33.77
2023-04-16T20:18:23.750Z,33.66
2023-04-16T20:20:53.350Z,33.77
2023-04-16T20:23:23.161Z,33.42
2023-04-16T20:25:53.903Z,33.69
2023-04-16T20:28:23.470Z,33.67
2023-04-16T20:30:53.329Z,33.72
2023-04-16T20:33:23.033Z,33.60
2023-04-16T20:35:53.788Z,33.60
2023-04-16T20:38:25.198Z,33.45
2023-04-16T20:41:07.692Z,33.57
2023-04-16T20:43:39.806Z,33.80
2023-04-16T20:46:10.225Z,33.72
2023-04-16T20:48:42.808Z,33.73
2023-04-16T20:51:12.467Z,33.40
2023-04-16T20:53:42.276Z,33.72
2023-04-16T20:56:16.153Z,33.67
2023-04-16T20:58:45.843Z,33.58
2023-04-16T21:01:15.591Z,33.71
2023-04-16T21:03:45.551Z,33.90
2023-04-16T21:06:19.177Z,33.56
2023-04-16T21:08:48.792Z,33.73
2023-04-16T21:11:18.451Z,33.52
2023-04-16T21:13:48.371Z,33.55
2023-04-16T21:16:18.157Z,33.62
2023-04-16T21:18:47.886Z,33.83
2023-04-16T21:21:17.699Z,33.63
2023-04-16T21:23:47.458Z,33.65
2023-04-16T21:26:17.193Z,33.84
2023-04-16T21:28:46.992Z,33.67
2023-04-16T21:31:16.706Z,33.67
2023-04-16T21:33:46.410Z,33.97
2023-04-16T21:36:16.069Z,33.67
2023-04-16T21:38:45.753Z,33.76
2023-04-16T21:41:15.390Z,34.10
2023-04-16T21:43:45.053Z,33.91
2023-04-16T21:46:14.798Z,33.98
2023-04-16T21:48:44.497Z,33.95
2023-04-16T21:51:15.604Z,33.82
2023-04-16T21:53:45.272Z,33.82
2023-04-16T21:56:14.984Z,34.00
2023-04-16T21:58:44.607Z,34.01
2023-04-16T22:01:14.283Z,33.84
2023-04-16T22:03:44.223Z,33.83
2023-04-16T22:06:14.815Z,34.08
2023-04-16T22:08:44.526Z,34.15
2023-04-16T22:11:14.188Z,33.84
2023-04-16T22:13:43.946Z,34.22
2023-04-16T22:16:13.885Z,34.40
2023-04-16T22:18:44.344Z,34.00
2023-04-16T22:21:14.055Z,34.11
2023-04-16T22:23:43.746Z,34.14
2023-04-16T22:26:14.392Z,34.42
2023-04-16T22:28:44.062Z,34.39
2023-04-16T22:31:13.724Z,34.21
2023-04-16T22:33:43.350Z,34.20
2023-04-16T22:36:13.029Z,34.14
2023-04-16T22:38:43.005Z,34.31
2023-04-16T22:41:12.675Z,33.85
2023-04-16T22:43:42.882Z,34.21
2023-04-16T22:46:12.897Z,34.22
2023-04-16T22:48:42.600Z,34.30
2023-04-16T22:51:12.446Z,34.17
2023-04-16T22:53:43.961Z,33.97
2023-04-16T22:56:13.989Z,34.12
2023-04-16T22:58:44.489Z,33.95
2023-04-16T23:01:14.509Z,34.06
2023-04-16T23:03:44.438Z,34.10
2023-04-16T23:06:14.197Z,34.24
2023-04-16T23:08:43.947Z,33.96
2023-04-16T23:11:13.592Z,34.08
2023-04-16T23:13:44.345Z,33.89
2023-04-16T23:16:14.161Z,34.15
2023-04-16T23:18:44.013Z,33.98
2023-04-16T23:21:13.709Z,34.33
2023-04-16T23:23:43.487Z,34.10
2023-04-16T23:26:13.173Z,33.98
2023-04-16T23:28:42.855Z,34.26
2023-04-16T23:31:12.635Z,33.80
2023-04-16T23:33:42.252Z,33.91
2023-04-16T23:36:12.221Z,34.01
2023-04-16T23:38:41.920Z,33.88
2023-04-16T23:41:11.530Z,33.73
2023-04-16T23:43:42.286Z,33.78
2023-04-16T23:46:11.970Z,33.78
2023-04-16T23:48:41.683Z,33.58
2023-04-16T23:51:11.358Z,33.72
2023-04-16T23:53:42.296Z,33.68
2023-04-16T23:56:14.864Z,33.71
2023-04-16T23:58:44.522Z,33.66
